Terminal Aerodrome Forecast
Issued by NWS

Home | Current Version | Previous Version | Text Only | Print | Product List | Glossary On
Versions: 1 2 3 4 5 6 7 8 9 10 11 12 13
000
FTUS44 KEPZ 232300 RRA
TAFTCS
TAF
KTCS 232344Z 2400/2424 30005KT P6SM SCT080 SCT140 BKN200
     FM240500 14007KT P6SM SCT080 SCT200
     FM241000 28004KT P6SM FEW100 SCT200
     FM241600 15008KT P6SM FEW110=

USA.gov is the U.S. government's official web portal to all federal, state and local government web resources and services.